カーブル の空港の天気 - METARとTAF

カーブル国際空港 ( OAKB / KBL ) - アフガニスタン カーブル
飛行場実況気象(Metar)
観測時間05/25 07:20 AFT (05/25 02:50 UTC)
風向・風速不定 1m/s
視程10km以上
天気現象
なし
気温19℃
湿度35%
気圧1019hPa
METAROAKB 250250Z VRB02KT CAVOK 19/03 Q1019 NOSIG RMK A3010 BLU BLU
過去の天気等 Google飛行場航空写真 Wunderground天気予報

過去48時間のMETAR

飛行場予報(TAF)
発表時間: 5/25 03:35 AFT (5/24 23:05 UTC)
予報対象時間: 25日4時 AFT ~ 26日4時 AFT
風向・風速不定 1m/s
視程10km以上
なし
25日5時 AFT ~ 25日8時 AFT に 確率 30% で一時的に
視程4,500m
天気現象煙霧
25日9時 AFT ~ 25日11時 AFT に徐々に
少しの雲 雲底高度 3,050m
25日11時 AFT ~ 25日13時 AFT に徐々に
風向・風速北北西 8m/s
全天の4割程度の雲 雲底高度 2,440m
25日14時 AFT ~ 25日18時 AFT に一時的に
風向・風速北北西 8m/s 瞬間風速 13m/s
視程6,000m
天気現象弱いしゅう雨 周辺で雷
全天の4割程度の積乱雲 雲底高度 1,520m
全天の8割程度の雲 雲底高度 2,440m
25日20時 AFT ~ 25日22時 AFT に徐々に
視程10km以上
なし
25日22時 AFT ~ 26日24時 AFT に徐々に
風向・風速不定 1m/s
TAF OAKB 242305Z 2500/2524 VRB02KT CAVOK
PROB30 TEMPO 2501/2504 4500 HZ
BECMG 2505/2507 FEW100
BECMG 2507/2509 34015KT SCT080
TEMPO 2510/2514 34015G25KT 6000 -SHRA VCTS SCT050CB BKN080
BECMG 2516/2518 CAVOK
BECMG 2518/2520 VRB02KT